Mc Shan, Alabama
Current Conditions -  °F | °C
As of 11:58 PM on Friday 24 Oct 2014 (Local Time) from KCBM Reporting Station
Clear Clear  
Wind Chill: 47°   Ceiling: Unl
Heat Index: 47°   Visibility: 10mi
Dew Point: 46°   Wind: 0mph
Humidity: 95%   Direction: NA
Pressure: 30.1"   Gusts: NA
Location:  33.3788°N, 88.1443°W
Report Text: KCBM 250458Z AUTO 00000KT 10SM CLR 09/08 A3010 RMK AO2 SLP195 T00860079 $
Loading
Personal Weather Stations






























Interactive Weather Map
Tropical Storm Tracking
New forecast layout! Learn more

10-Day Weather Forecast

Advertisements
Track Severe Weather on mobile